createdAt,value
2023-03-11T00:00:31.028Z,59.09
2023-03-11T00:03:02.412Z,58.77
2023-03-11T00:05:33.826Z,58.98
2023-03-11T00:08:02.106Z,59.34
2023-03-11T00:10:31.789Z,59.44
2023-03-11T00:12:59.986Z,59.33
2023-03-11T00:15:28.464Z,59.65
2023-03-11T00:17:55.856Z,59.53
2023-03-11T00:20:27.016Z,59.12
2023-03-11T00:22:56.240Z,59.07
2023-03-11T00:25:26.152Z,59.14
2023-03-11T00:27:53.208Z,59.31
2023-03-11T00:30:21.810Z,59.69
2023-03-11T00:32:49.920Z,58.89
2023-03-11T00:35:21.502Z,58.93
2023-03-11T00:37:52.055Z,59.45
2023-03-11T00:40:23.418Z,59.71
2023-03-11T00:42:50.301Z,59.78
2023-03-11T00:45:17.390Z,59.30
2023-03-11T00:47:44.667Z,59.36
2023-03-11T00:50:17.948Z,59.40
2023-03-11T00:52:45.931Z,59.20
2023-03-11T00:55:16.634Z,59.24
2023-03-11T00:57:45.107Z,59.15
2023-03-11T01:00:15.614Z,59.05
2023-03-11T01:02:43.005Z,58.72
2023-03-11T01:05:11.345Z,59.26
2023-03-11T01:07:38.323Z,58.39
2023-03-11T01:10:08.043Z,58.35
2023-03-11T01:12:34.909Z,58.79
2023-03-11T01:15:05.591Z,58.64
2023-03-11T01:17:32.727Z,58.46
2023-03-11T01:19:59.578Z,58.19
2023-03-11T01:22:26.462Z,58.57
2023-03-11T01:24:53.323Z,58.14
2023-03-11T01:27:20.193Z,58.14
2023-03-11T01:29:47.042Z,58.25
2023-03-11T01:32:15.296Z,57.77
2023-03-11T01:34:42.154Z,58.03
2023-03-11T01:37:09.033Z,58.22
2023-03-11T01:39:35.956Z,58.21
2023-03-11T01:42:03.229Z,57.92
2023-03-11T01:44:30.182Z,57.92
2023-03-11T01:47:39.825Z,57.67
2023-03-11T01:50:12.816Z,58.12
2023-03-11T01:52:42.549Z,57.69
2023-03-11T01:55:12.331Z,57.85
2023-03-11T01:57:42.301Z,58.23
2023-03-11T02:00:13.271Z,58.14
2023-03-11T02:02:48.073Z,57.90
2023-03-11T02:05:16.575Z,57.98
2023-03-11T02:07:43.594Z,58.48
2023-03-11T02:10:13.628Z,57.77
2023-03-11T02:12:42.505Z,58.02
2023-03-11T02:15:12.510Z,57.57
2023-03-11T02:17:42.908Z,58.22
2023-03-11T02:20:28.481Z,57.58
2023-03-11T02:22:57.283Z,57.72
2023-03-11T02:25:34.574Z,58.59
2023-03-11T02:28:07.174Z,58.19
2023-03-11T02:30:36.592Z,58.32
2023-03-11T02:33:04.002Z,58.17
2023-03-11T02:35:31.620Z,58.24
2023-03-11T02:37:58.696Z,58.30
2023-03-11T02:40:48.601Z,58.42
2023-03-11T02:43:22.220Z,58.72
2023-03-11T02:45:49.900Z,58.00
2023-03-11T02:48:18.670Z,57.83
2023-03-11T02:50:47.331Z,58.39
2023-03-11T02:53:14.641Z,58.32
2023-03-11T02:55:41.520Z,58.45
2023-03-11T02:58:08.713Z,57.84
2023-03-11T03:00:37.210Z,57.92
2023-03-11T03:03:05.154Z,57.84
2023-03-11T03:05:32.060Z,58.30
2023-03-11T03:07:59.112Z,58.04
2023-03-11T03:10:26.073Z,57.91
2023-03-11T03:12:52.972Z,57.93
2023-03-11T03:15:19.953Z,58.00
2023-03-11T03:17:48.341Z,57.17
2023-03-11T03:20:15.371Z,57.83
2023-03-11T03:22:43.232Z,57.73
2023-03-11T03:25:11.515Z,57.34
2023-03-11T03:27:38.906Z,57.51
2023-03-11T03:30:08.968Z,57.17
2023-03-11T03:32:36.812Z,57.45
2023-03-11T03:35:06.970Z,57.98
2023-03-11T03:37:36.758Z,57.80
2023-03-11T03:40:09.587Z,57.90
2023-03-11T03:42:37.689Z,57.54
2023-03-11T03:45:07.833Z,58.16
2023-03-11T03:47:36.241Z,57.56
2023-03-11T03:50:06.710Z,58.57
2023-03-11T03:52:34.916Z,57.79
2023-03-11T03:55:01.919Z,58.39
2023-03-11T03:57:29.150Z,58.67
2023-03-11T03:59:56.134Z,57.82
2023-03-11T04:02:23.316Z,58.29
2023-03-11T04:04:50.658Z,57.85
2023-03-11T04:07:19.124Z,58.17
2023-03-11T04:09:46.542Z,57.62
2023-03-11T04:12:17.351Z,57.95
2023-03-11T04:14:44.928Z,57.20
2023-03-11T04:17:12.782Z,57.37
2023-03-11T04:19:39.873Z,57.23
2023-03-11T04:22:07.068Z,57.42
2023-03-11T04:24:35.327Z,57.62
2023-03-11T04:27:02.277Z,56.91
2023-03-11T04:29:29.217Z,57.45
2023-03-11T04:31:56.066Z,57.95
2023-03-11T04:34:23.204Z,57.60
2023-03-11T04:36:52.534Z,58.13
2023-03-11T04:39:19.551Z,57.75
2023-03-11T04:41:47.819Z,57.53
2023-03-11T04:44:15.100Z,57.63
2023-03-11T04:46:42.100Z,58.10
2023-03-11T04:49:09.813Z,57.95
2023-03-11T04:51:36.880Z,57.73
2023-03-11T04:54:04.136Z,57.74
2023-03-11T04:56:31.029Z,58.41
2023-03-11T04:58:59.401Z,58.03
2023-03-11T05:01:26.395Z,58.10
2023-03-11T05:03:53.266Z,58.47
2023-03-11T05:06:20.134Z,58.87
2023-03-11T05:08:47.023Z,58.41
2023-03-11T05:11:13.905Z,58.01
2023-03-11T05:13:40.769Z,58.52
2023-03-11T05:16:09.135Z,58.33
2023-03-11T05:18:36.099Z,58.01
2023-03-11T05:21:03.340Z,58.46
2023-03-11T05:23:30.189Z,58.88
2023-03-11T05:25:57.073Z,58.35
2023-03-11T05:28:24.016Z,57.66
2023-03-11T05:30:51.370Z,57.79
2023-03-11T05:33:19.698Z,57.79
2023-03-11T05:35:46.907Z,57.73
2023-03-11T05:38:14.199Z,57.95
2023-03-11T05:40:41.365Z,57.71
2023-03-11T05:43:08.421Z,57.38
2023-03-11T05:45:35.317Z,57.58
2023-03-11T05:48:02.222Z,58.02
2023-03-11T05:50:30.451Z,56.91
2023-03-11T05:52:57.430Z,57.73
2023-03-11T05:55:24.275Z,57.29
2023-03-11T05:57:52.230Z,57.24
2023-03-11T06:00:20.517Z,56.84
2023-03-11T06:02:47.568Z,57.68
2023-03-11T06:05:14.962Z,57.05
2023-03-11T06:07:43.281Z,57.15
2023-03-11T06:10:11.941Z,56.99
2023-03-11T06:12:39.367Z,56.59
2023-03-11T06:15:07.970Z,57.62
2023-03-11T06:17:34.952Z,57.45
2023-03-11T06:20:01.816Z,56.86
2023-03-11T06:22:28.797Z,57.28
2023-03-11T06:24:57.031Z,57.02
2023-03-11T06:27:23.900Z,56.67
2023-03-11T06:29:53.544Z,56.44
2023-03-11T06:32:20.644Z,56.60
2023-03-11T06:34:51.682Z,56.47
2023-03-11T06:37:19.158Z,56.84
2023-03-11T06:39:46.018Z,56.29
2023-03-11T06:42:14.481Z,55.97
2023-03-11T06:44:41.394Z,56.45
2023-03-11T06:47:08.295Z,56.65
2023-03-11T06:49:36.860Z,55.63
2023-03-11T06:52:04.298Z,55.80
2023-03-11T06:54:31.181Z,54.86
2023-03-11T06:56:58.048Z,54.52
2023-03-11T06:59:28.114Z,55.15
2023-03-11T07:01:55.222Z,55.20
2023-03-11T07:04:22.165Z,54.62
2023-03-11T07:06:49.043Z,54.82
2023-03-11T07:09:16.184Z,55.01
2023-03-11T07:11:43.354Z,54.84
2023-03-11T07:14:10.302Z,55.40
2023-03-11T07:16:39.340Z,55.39
2023-03-11T07:19:06.318Z,54.38
2023-03-11T07:21:33.432Z,54.45
2023-03-11T07:24:02.694Z,53.49
2023-03-11T07:26:31.288Z,53.95
2023-03-11T07:28:58.790Z,54.04
2023-03-11T07:31:28.355Z,53.47
2023-03-11T07:33:58.634Z,53.16
2023-03-11T07:36:26.924Z,52.35
2023-03-11T07:38:58.303Z,52.30
2023-03-11T07:41:26.760Z,51.59
2023-03-11T07:43:56.023Z,51.34
2023-03-11T07:46:24.945Z,50.90
2023-03-11T07:48:52.616Z,49.81
2023-03-11T07:51:23.681Z,49.10
2023-03-11T07:53:53.146Z,49.49
2023-03-11T07:56:23.525Z,48.56
2023-03-11T07:58:51.384Z,48.18
2023-03-11T08:01:21.411Z,47.11
2023-03-11T08:03:51.228Z,45.80
2023-03-11T08:06:24.040Z,45.76
2023-03-11T08:08:51.600Z,44.44
2023-03-11T08:11:20.843Z,43.87
2023-03-11T08:13:49.623Z,42.54
2023-03-11T08:16:19.956Z,42.79
2023-03-11T08:18:48.027Z,41.90
2023-03-11T08:21:18.292Z,41.88
2023-03-11T08:23:46.511Z,41.03
2023-03-11T08:26:17.573Z,40.35
2023-03-11T08:28:45.426Z,40.14
2023-03-11T08:31:14.270Z,39.37
2023-03-11T08:33:42.557Z,39.34
2023-03-11T08:36:09.886Z,38.93
2023-03-11T08:38:37.105Z,38.54
2023-03-11T08:41:05.609Z,37.58
2023-03-11T08:43:33.046Z,36.38
2023-03-11T08:46:01.562Z,36.09
2023-03-11T08:48:29.064Z,34.84
2023-03-11T08:50:56.355Z,33.64
2023-03-11T08:53:23.764Z,32.21
2023-03-11T08:55:52.152Z,30.96
2023-03-11T08:58:21.160Z,30.72
2023-03-11T09:00:48.259Z,29.68
2023-03-11T09:03:15.316Z,28.52
2023-03-11T09:05:42.246Z,27.99
2023-03-11T09:08:09.988Z,27.15
2023-03-11T09:10:39.623Z,27.12
2023-03-11T09:13:06.709Z,26.81
2023-03-11T09:15:36.326Z,26.58
2023-03-11T09:18:03.583Z,26.48
2023-03-11T09:20:30.510Z,25.01
2023-03-11T09:22:57.395Z,24.77
2023-03-11T09:25:24.539Z,24.31
2023-03-11T09:27:51.415Z,23.96
2023-03-11T09:30:18.681Z,23.51
2023-03-11T09:32:47.091Z,23.69
2023-03-11T09:35:14.088Z,23.35
2023-03-11T09:37:41.425Z,22.94
2023-03-11T09:40:15.342Z,22.21
2023-03-11T09:42:55.662Z,21.92
2023-03-11T09:45:28.093Z,21.45
2023-03-11T09:48:16.701Z,20.88
2023-03-11T09:50:53.553Z,20.46
2023-03-11T09:53:35.141Z,20.64
2023-03-11T09:56:07.864Z,20.00
2023-03-11T09:58:40.718Z,19.77
2023-03-11T10:01:18.364Z,19.36
2023-03-11T10:03:48.414Z,19.43
2023-03-11T10:06:19.569Z,19.41
2023-03-11T10:08:57.026Z,19.49
2023-03-11T10:11:45.276Z,19.12
2023-03-11T10:14:30.172Z,18.34
2023-03-11T10:17:07.232Z,18.54
2023-03-11T10:19:46.385Z,18.93
2023-03-11T10:22:23.573Z,19.30
2023-03-11T10:25:05.340Z,19.42
2023-03-11T10:27:41.934Z,19.37
2023-03-11T10:30:23.342Z,19.30
2023-03-11T10:32:56.859Z,19.61
2023-03-11T10:35:39.017Z,20.14
2023-03-11T10:38:14.932Z,20.59
2023-03-11T10:40:45.059Z,20.50
2023-03-11T10:43:17.936Z,21.31
2023-03-11T10:45:48.434Z,21.15
2023-03-11T10:48:18.091Z,21.28
2023-03-11T10:50:57.741Z,21.39
2023-03-11T10:53:24.938Z,21.88
2023-03-11T10:55:54.556Z,22.31
2023-03-11T10:58:24.762Z,22.67
2023-03-11T11:01:05.216Z,23.05
2023-03-11T11:03:34.029Z,23.32
2023-03-11T11:06:06.907Z,23.64
2023-03-11T11:08:34.323Z,23.29
2023-03-11T11:11:03.660Z,22.40
2023-03-11T11:13:34.830Z,22.02
2023-03-11T11:16:05.801Z,21.69
2023-03-11T11:18:36.667Z,22.02
2023-03-11T11:21:09.125Z,21.42
2023-03-11T11:23:43.184Z,21.85
2023-03-11T11:26:19.233Z,22.50
2023-03-11T11:28:46.672Z,23.08
2023-03-11T11:31:25.777Z,23.01
2023-03-11T11:33:56.081Z,23.21
2023-03-11T11:36:30.193Z,23.24
2023-03-11T11:38:59.419Z,23.65
2023-03-11T11:41:30.465Z,23.73
2023-03-11T11:44:02.875Z,24.04
2023-03-11T11:46:38.399Z,24.54
2023-03-11T11:49:18.858Z,24.32
2023-03-11T11:51:55.045Z,24.19
2023-03-11T11:54:30.759Z,23.86
2023-03-11T11:56:58.462Z,24.43
2023-03-11T11:59:26.729Z,25.12
2023-03-11T12:02:13.711Z,25.16
2023-03-11T12:04:56.650Z,25.42
2023-03-11T12:07:47.716Z,25.48
2023-03-11T12:10:27.616Z,25.57
2023-03-11T12:13:43.033Z,25.69
2023-03-11T12:16:23.966Z,24.46
2023-03-11T12:19:00.282Z,23.94
2023-03-11T12:21:56.907Z,24.07
2023-03-11T12:24:54.618Z,23.49
2023-03-11T12:27:27.648Z,22.87
2023-03-11T12:30:01.734Z,22.94
2023-03-11T12:32:34.450Z,23.26
2023-03-11T12:35:10.689Z,23.04
2023-03-11T12:37:37.775Z,22.71
2023-03-11T12:40:47.866Z,22.46
2023-03-11T12:43:29.883Z,22.38
2023-03-11T12:46:01.146Z,22.78
2023-03-11T12:48:41.550Z,22.77
2023-03-11T12:51:40.136Z,22.77
2023-03-11T12:54:29.684Z,23.29
2023-03-11T12:56:59.954Z,22.64
2023-03-11T13:00:12.225Z,22.96
2023-03-11T13:03:26.734Z,23.55
2023-03-11T13:06:11.474Z,24.02
2023-03-11T13:08:48.371Z,24.77
2023-03-11T13:11:43.000Z,24.87
2023-03-11T13:14:29.831Z,25.72
2023-03-11T13:17:23.702Z,25.96
2023-03-11T13:19:55.182Z,25.63
2023-03-11T13:23:05.686Z,25.83
2023-03-11T13:25:40.636Z,26.46
2023-03-11T13:28:44.004Z,25.91
2023-03-11T13:31:34.510Z,25.87
2023-03-11T13:34:13.757Z,26.30
2023-03-11T13:36:56.368Z,26.92
2023-03-11T13:39:49.615Z,27.49
2023-03-11T13:42:27.885Z,27.72
2023-03-11T13:44:54.992Z,28.27
2023-03-11T13:47:23.638Z,28.67
2023-03-11T13:50:00.641Z,28.77
2023-03-11T13:52:32.624Z,28.46
2023-03-11T13:55:06.362Z,28.04
2023-03-11T13:57:37.287Z,27.99
2023-03-11T14:00:16.654Z,27.21
2023-03-11T14:02:48.963Z,27.26
2023-03-11T14:05:20.977Z,27.06
2023-03-11T14:07:47.961Z,26.61
2023-03-11T14:10:27.619Z,26.66
2023-03-11T14:13:16.639Z,26.64
2023-03-11T14:15:54.453Z,26.33
2023-03-11T14:18:43.530Z,26.65
2023-03-11T14:21:16.281Z,26.87
2023-03-11T14:23:46.327Z,27.04
2023-03-11T14:26:17.346Z,26.84
2023-03-11T14:28:49.456Z,25.93
2023-03-11T14:31:32.305Z,25.82
2023-03-11T14:34:07.433Z,25.86
2023-03-11T14:36:43.333Z,25.78
2023-03-11T14:39:31.184Z,25.55
2023-03-11T14:42:13.552Z,25.84
2023-03-11T14:44:44.684Z,26.37
2023-03-11T14:47:21.689Z,26.20
2023-03-11T14:49:51.225Z,25.98
2023-03-11T14:52:33.062Z,26.23
2023-03-11T14:55:02.201Z,26.01
2023-03-11T14:57:39.730Z,26.01
2023-03-11T15:00:16.545Z,26.54
2023-03-11T15:02:59.690Z,26.50
2023-03-11T15:05:36.408Z,26.17
2023-03-11T15:08:07.380Z,26.82
2023-03-11T15:10:36.830Z,27.77
2023-03-11T15:13:13.465Z,28.58
2023-03-11T15:15:42.075Z,28.70
2023-03-11T15:18:23.390Z,29.39
2023-03-11T15:21:06.128Z,29.51
2023-03-11T15:23:35.588Z,29.67
2023-03-11T15:26:04.150Z,29.67
2023-03-11T15:28:36.312Z,29.90
2023-03-11T15:31:31.721Z,30.47
2023-03-11T15:34:29.327Z,30.87
2023-03-11T15:37:19.247Z,31.40
2023-03-11T15:39:51.144Z,31.88
2023-03-11T15:42:22.896Z,32.22
2023-03-11T15:45:08.796Z,33.03
2023-03-11T15:47:37.445Z,33.11
2023-03-11T15:50:24.141Z,33.36
2023-03-11T15:52:54.270Z,33.91
2023-03-11T15:55:22.084Z,34.05
2023-03-11T15:57:52.750Z,34.39
2023-03-11T16:00:23.368Z,34.62
2023-03-11T16:02:51.989Z,34.97
2023-03-11T16:05:21.895Z,34.79
2023-03-11T16:07:49.940Z,35.16
2023-03-11T16:10:19.969Z,35.59
2023-03-11T16:12:47.102Z,35.69
2023-03-11T16:15:24.621Z,35.64
2023-03-11T16:17:54.344Z,35.89
2023-03-11T16:20:24.129Z,35.94
2023-03-11T16:22:54.753Z,36.15
2023-03-11T16:25:26.737Z,36.54
2023-03-11T16:27:56.695Z,37.06
2023-03-11T16:30:26.756Z,37.75
2023-03-11T16:32:55.465Z,37.36
2023-03-11T16:35:22.869Z,37.03
2023-03-11T16:37:50.161Z,37.41
2023-03-11T16:40:20.507Z,37.96
2023-03-11T16:42:48.483Z,37.56
2023-03-11T16:45:17.679Z,37.72
2023-03-11T16:47:44.733Z,37.59
2023-03-11T16:50:13.150Z,38.06
2023-03-11T16:52:40.210Z,38.33
2023-03-11T16:55:08.460Z,37.91
2023-03-11T16:57:36.329Z,38.73
2023-03-11T17:00:06.430Z,37.96
2023-03-11T17:02:33.643Z,37.90
2023-03-11T17:05:00.857Z,38.14
2023-03-11T17:07:29.301Z,38.17
2023-03-11T17:09:57.454Z,38.46
2023-03-11T17:12:25.756Z,39.13
2023-03-11T17:14:53.899Z,39.57
2023-03-11T17:17:22.339Z,39.25
2023-03-11T17:19:49.374Z,39.55
2023-03-11T17:22:17.064Z,39.54
2023-03-11T17:24:45.424Z,39.94
2023-03-11T17:27:12.551Z,39.79
2023-03-11T17:29:39.442Z,40.14
2023-03-11T17:32:07.769Z,39.80
2023-03-11T17:34:34.792Z,40.15
2023-03-11T17:37:01.947Z,39.66
2023-03-11T17:39:29.359Z,39.62
2023-03-11T17:41:57.652Z,39.63
2023-03-11T17:44:24.701Z,39.45
2023-03-11T17:46:51.786Z,40.13
2023-03-11T17:49:18.794Z,40.74
2023-03-11T17:51:45.864Z,41.53
2023-03-11T17:54:12.788Z,42.72
2023-03-11T17:56:39.761Z,43.72
2023-03-11T17:59:08.114Z,43.46
2023-03-11T18:01:35.169Z,44.12
2023-03-11T18:04:02.287Z,44.60
2023-03-11T18:06:31.485Z,45.12
2023-03-11T18:08:59.043Z,45.77
2023-03-11T18:11:28.329Z,46.13
2023-03-11T18:13:55.918Z,46.74
2023-03-11T18:16:28.456Z,47.51
2023-03-11T18:18:57.164Z,47.63
2023-03-11T18:21:27.006Z,47.44
2023-03-11T18:23:56.092Z,48.53
2023-03-11T18:26:25.124Z,48.00
2023-03-11T18:28:53.325Z,47.96
2023-03-11T18:31:24.126Z,47.85
2023-03-11T18:33:54.318Z,47.86
2023-03-11T18:36:24.721Z,48.35
2023-03-11T18:38:54.122Z,48.36
2023-03-11T18:41:21.548Z,48.08
2023-03-11T18:43:53.084Z,48.06
2023-03-11T18:46:20.503Z,48.06
2023-03-11T18:48:48.875Z,48.27
2023-03-11T18:51:18.211Z,49.03
2023-03-11T18:53:45.855Z,48.89
2023-03-11T18:56:17.310Z,49.43
2023-03-11T18:58:44.907Z,49.53
2023-03-11T19:01:15.683Z,49.94
2023-03-11T19:03:45.307Z,49.84
2023-03-11T19:06:13.934Z,50.20
2023-03-11T19:08:40.959Z,50.24
2023-03-11T19:11:08.582Z,50.29
2023-03-11T19:13:46.537Z,50.62
2023-03-11T19:16:16.786Z,50.57
2023-03-11T19:18:44.030Z,50.69
2023-03-11T19:21:15.087Z,50.94
2023-03-11T19:23:43.384Z,50.97
2023-03-11T19:26:10.564Z,51.02
2023-03-11T19:28:37.517Z,51.11
2023-03-11T19:31:05.588Z,51.11
2023-03-11T19:33:34.444Z,51.04
2023-03-11T19:36:05.376Z,50.90
2023-03-11T19:38:34.145Z,51.06
2023-03-11T19:41:04.121Z,50.86
2023-03-11T19:43:31.549Z,51.20
2023-03-11T19:45:58.560Z,51.07
2023-03-11T19:48:25.741Z,51.22
2023-03-11T19:50:53.555Z,51.01
2023-03-11T19:53:22.622Z,51.17
2023-03-11T19:55:54.542Z,51.23
2023-03-11T19:58:23.665Z,51.24
2023-03-11T20:00:51.733Z,51.23
2023-03-11T20:03:21.692Z,51.30
2023-03-11T20:05:51.126Z,51.14
2023-03-11T20:08:20.872Z,51.14
2023-03-11T20:10:52.135Z,51.09
2023-03-11T20:13:21.686Z,51.27
2023-03-11T20:15:49.715Z,51.21
2023-03-11T20:18:17.801Z,51.14
2023-03-11T20:20:45.704Z,50.87
2023-03-11T20:23:13.435Z,51.18
2023-03-11T20:25:41.785Z,50.81
2023-03-11T20:28:10.461Z,50.90
2023-03-11T20:30:39.226Z,50.74
2023-03-11T20:33:07.127Z,50.98
2023-03-11T20:35:34.626Z,50.91
2023-03-11T20:38:02.797Z,50.76
2023-03-11T20:40:30.462Z,50.75
2023-03-11T20:42:57.637Z,50.86
2023-03-11T20:45:25.960Z,51.17
2023-03-11T20:47:53.887Z,50.97
2023-03-11T20:50:21.810Z,50.76
2023-03-11T20:52:49.736Z,50.93
2023-03-11T20:55:17.375Z,50.60
2023-03-11T20:57:44.559Z,50.62
2023-03-11T21:00:14.091Z,51.00
2023-03-11T21:02:43.643Z,50.58
2023-03-11T21:05:12.262Z,50.98
2023-03-11T21:07:40.108Z,50.56
2023-03-11T21:10:10.444Z,51.02
2023-03-11T21:12:37.876Z,51.08
2023-03-11T21:15:07.164Z,50.43
2023-03-11T21:17:34.698Z,50.42
2023-03-11T21:20:05.129Z,50.77
2023-03-11T21:22:32.214Z,51.03
2023-03-11T21:24:59.226Z,50.73
2023-03-11T21:27:26.714Z,50.65
2023-03-11T21:29:55.200Z,50.74
2023-03-11T21:32:22.792Z,51.08
2023-03-11T21:34:50.184Z,50.60
2023-03-11T21:37:18.609Z,50.58
2023-03-11T21:39:45.631Z,50.65
2023-03-11T21:42:13.262Z,50.50
2023-03-11T21:44:41.290Z,50.62
2023-03-11T21:47:09.227Z,50.38
2023-03-11T21:49:36.341Z,50.37
2023-03-11T21:52:03.540Z,50.51
2023-03-11T21:54:31.863Z,50.64
2023-03-11T21:56:58.860Z,50.53
2023-03-11T21:59:26.189Z,50.54
2023-03-11T22:01:53.265Z,50.73
2023-03-11T22:04:20.698Z,50.67
2023-03-11T22:06:47.800Z,50.18
2023-03-11T22:09:14.976Z,50.19
2023-03-11T22:11:43.271Z,50.58
2023-03-11T22:14:10.414Z,50.45
2023-03-11T22:16:37.826Z,50.22
2023-03-11T22:19:08.703Z,50.46
2023-03-11T22:21:35.748Z,50.74
2023-03-11T22:24:02.776Z,50.83
2023-03-11T22:26:29.635Z,50.51
2023-03-11T22:28:57.931Z,50.54
2023-03-11T22:31:25.037Z,50.61
2023-03-11T22:33:52.273Z,50.33
2023-03-11T22:36:19.358Z,50.13
2023-03-11T22:38:46.597Z,50.34
2023-03-11T22:41:14.524Z,50.80
2023-03-11T22:43:41.576Z,50.49
2023-03-11T22:46:09.975Z,50.51
2023-03-11T22:48:37.139Z,50.52
2023-03-11T22:51:05.520Z,50.67
2023-03-11T22:53:32.622Z,50.95
2023-03-11T22:55:59.544Z,50.75
2023-03-11T22:58:26.463Z,50.20
2023-03-11T23:00:53.435Z,50.28
2023-03-11T23:03:21.753Z,50.40
2023-03-11T23:05:48.819Z,50.67
2023-03-11T23:08:16.629Z,50.75
2023-03-11T23:10:47.069Z,50.79
2023-03-11T23:13:14.626Z,50.91
2023-03-11T23:15:43.830Z,50.64
2023-03-11T23:18:12.346Z,50.49
2023-03-11T23:20:42.747Z,50.03
2023-03-11T23:23:10.909Z,50.39
2023-03-11T23:25:40.216Z,50.40
2023-03-11T23:28:07.873Z,50.33
2023-03-11T23:30:35.354Z,50.27
2023-03-11T23:33:02.902Z,50.51
2023-03-11T23:35:30.579Z,50.73
2023-03-11T23:37:59.787Z,50.78
2023-03-11T23:40:27.341Z,50.56
2023-03-11T23:42:54.368Z,50.60
2023-03-11T23:45:21.431Z,51.25
2023-03-11T23:47:48.310Z,50.79
2023-03-11T23:50:15.828Z,51.00
2023-03-11T23:52:43.261Z,50.71
2023-03-11T23:55:12.137Z,51.12
2023-03-11T23:57:39.183Z,51.12
